Time;durP1;ratioP1;P1;durP2;ratioP2;P2;SDS_P1;SDS_P2;PMS_P1;PMS_P2;Temp;Humidity;BMP_temperature;BMP_pressure;BME280_temperature;BME280_humidity;BME280_pressure;Samples;Min_cycle;Max_cycle;Signal;HPM_P1;HPM_P2
2021/09/12 00:01:31;;;;;;;7.50;5.17;;;;;;;22.90;56.30;100640.33;1767487;80;21061;-49
2021/09/12 00:03:57;;;;;;;9.73;6.10;;;;;;;22.89;56.30;100638.70;1786332;80;20978;-51
2021/09/12 00:06:24;;;;;;;7.20;5.40;;;;;;;22.89;56.30;100637.31;1786560;79;21547;-49
2021/09/12 00:08:50;;;;;;;7.00;5.03;;;;;;;22.88;56.28;100640.41;1784707;80;20914;-50
2021/09/12 00:11:16;;;;;;;7.40;5.80;;;;;;;22.89;56.29;100644.82;1789810;80;21105;-52
2021/09/12 00:13:42;;;;;;;7.08;5.22;;;;;;;22.89;56.27;100645.64;1787158;78;21164;-52
2021/09/12 00:16:08;;;;;;;6.92;5.37;;;;;;;22.88;56.27;100643.19;1747033;80;21129;-48
2021/09/12 00:18:34;;;;;;;6.65;5.17;;;;;;;22.87;56.25;100643.79;1755021;80;21481;-50
2021/09/12 00:21:00;;;;;;;7.25;5.05;;;;;;;22.88;56.25;100639.03;1790738;79;21136;-48
2021/09/12 00:23:27;;;;;;;7.37;5.37;;;;;;;22.88;56.25;100634.87;1785348;80;21469;-50
2021/09/12 00:25:53;;;;;;;8.48;5.75;;;;;;;22.87;56.26;100634.08;1789101;78;21049;-49
2021/09/12 00:28:19;;;;;;;6.30;5.05;;;;;;;22.87;56.25;100636.04;1789221;79;21089;-49
2021/09/12 00:30:45;;;;;;;8.13;5.75;;;;;;;22.88;56.21;100630.13;1790082;79;20995;-49
2021/09/12 00:33:11;;;;;;;6.75;4.87;;;;;;;22.87;56.21;100634.66;1787011;80;21050;-49
2021/09/12 00:35:37;;;;;;;8.75;5.80;;;;;;;22.86;56.20;100630.25;1789405;80;21894;-50
2021/09/12 00:38:03;;;;;;;7.50;5.03;;;;;;;22.86;56.19;100631.06;1788587;79;20911;-49
2021/09/12 00:40:29;;;;;;;8.55;6.50;;;;;;;22.85;56.19;100626.66;1789319;80;21741;-49
2021/09/12 00:42:55;;;;;;;8.10;5.53;;;;;;;22.86;56.19;100631.63;1789714;80;20907;-50
2021/09/12 00:45:22;;;;;;;8.20;5.85;;;;;;;22.86;56.17;100624.70;1787561;80;21046;-49
2021/09/12 00:47:48;;;;;;;7.22;5.58;;;;;;;22.86;56.18;100626.09;1788023;80;21069;-48
2021/09/12 00:50:15;;;;;;;8.45;5.20;;;;;;;22.85;56.18;100625.27;1789299;79;21493;-51
2021/09/12 00:52:44;;;;;;;7.25;5.17;;;;;;;22.85;56.15;100628.05;1787604;79;21113;-48
2021/09/12 00:55:11;;;;;;;6.75;5.58;;;;;;;22.85;56.13;100628.61;1789673;79;21485;-48
2021/09/12 00:57:37;;;;;;;7.55;5.45;;;;;;;22.85;56.14;100628.05;1785668;79;21035;-49
2021/09/12 01:00:06;;;;;;;7.92;5.10;;;;;;;22.84;56.10;100629.75;1765049;80;21526;-50
2021/09/12 01:02:32;;;;;;;6.95;5.03;;;;;;;22.84;56.10;100629.75;1787590;79;21137;-49
2021/09/12 01:04:58;;;;;;;7.97;5.45;;;;;;;22.84;56.12;100624.20;1790169;79;21249;-48
2021/09/12 01:07:24;;;;;;;7.25;5.30;;;;;;;22.83;56.13;100626.77;1788714;80;20860;-52
2021/09/12 01:09:50;;;;;;;7.08;5.58;;;;;;;22.83;56.11;100622.61;1768683;80;21188;-48
2021/09/12 01:12:16;;;;;;;6.67;5.50;;;;;;;22.83;56.10;100626.77;1791344;78;20951;-48
2021/09/12 01:14:42;;;;;;;7.12;5.00;;;;;;;22.82;56.09;100624.56;1747604;80;21062;-50
2021/09/12 01:17:08;;;;;;;8.03;5.12;;;;;;;22.82;56.09;100624.56;1789233;80;21170;-52
2021/09/12 01:19:34;;;;;;;8.15;5.60;;;;;;;22.82;56.08;100618.20;1789902;78;20966;-48
2021/09/12 01:22:04;;;;;;;6.60;4.80;;;;;;;22.81;56.08;100622.12;1787500;80;21118;-51
2021/09/12 01:24:31;;;;;;;8.05;5.12;;;;;;;22.81;56.08;100617.95;1785299;80;20995;-48
2021/09/12 01:26:57;;;;;;;8.45;5.22;;;;;;;22.81;56.07;100620.16;1784999;78;21516;-50
2021/09/12 01:29:23;;;;;;;7.47;5.45;;;;;;;22.81;56.06;100617.95;1789743;80;23181;-53
2021/09/12 01:31:50;;;;;;;6.65;5.22;;;;;;;22.80;56.05;100616.33;1787751;80;21556;-48
2021/09/12 01:34:16;;;;;;;9.53;6.17;;;;;;;22.79;56.04;100615.51;1788589;80;21067;-48
2021/09/12 01:36:42;;;;;;;6.95;4.92;;;;;;;22.80;56.05;100616.33;1786185;80;20962;-48
2021/09/12 01:39:09;;;;;;;7.50;4.92;;;;;;;22.79;56.04;100621.05;1789362;78;21095;-52
2021/09/12 01:41:35;;;;;;;7.83;5.45;;;;;;;22.79;56.04;100618.28;1789089;78;21227;-50
2021/09/12 01:44:04;;;;;;;6.35;5.10;;;;;;;22.78;56.04;100619.45;1788382;79;20991;-48
2021/09/12 01:46:30;;;;;;;7.58;5.30;;;;;;;22.79;56.03;100616.89;1792065;79;21011;-48
2021/09/12 01:49:01;;;;;;;7.30;4.53;;;;;;;22.79;56.00;100614.73;1795980;78;21622;-49
2021/09/12 01:51:27;;;;;;;;;;;;;;;22.78;56.00;100614.48;1798015;79;21070;-50
2021/09/12 01:53:53;;;;;;;7.10;4.95;;;;;;;22.78;55.99;100611.70;1790434;79;21302;-49
2021/09/12 01:56:19;;;;;;;6.28;5.17;;;;;;;22.75;56.00;100615.38;1795346;79;21492;-48
2021/09/12 01:58:45;;;;;;;7.35;5.80;;;;;;;22.75;56.00;100620.92;1795794;78;21058;-50
2021/09/12 02:01:11;;;;;;;8.53;6.10;;;;;;;22.74;55.99;100615.73;1798193;79;21915;-51
2021/09/12 02:03:37;;;;;;;9.93;5.67;;;;;;;22.75;55.99;100614.56;1793230;79;20911;-50
2021/09/12 02:06:03;;;;;;;8.68;6.08;;;;;;;22.74;55.96;100616.52;1791998;79;22838;-49
2021/09/12 02:08:29;;;;;;;7.17;5.45;;;;;;;22.75;55.95;100613.98;1791795;78;21586;-51
2021/09/12 02:10:55;;;;;;;7.35;5.20;;;;;;;22.74;55.95;100612.36;1790666;79;21022;-48
2021/09/12 02:13:21;;;;;;;7.45;5.20;;;;;;;22.75;55.94;100611.78;1797544;79;21543;-49
2021/09/12 02:15:47;;;;;;;6.75;5.28;;;;;;;22.75;55.95;100615.95;1793467;79;21068;-48
2021/09/12 02:18:13;;;;;;;6.72;5.03;;;;;;;22.69;55.93;100608.42;1791059;79;21223;-51
2021/09/12 02:20:40;;;;;;;8.18;5.05;;;;;;;22.74;55.93;100617.91;1799631;79;21041;-49
2021/09/12 02:23:06;;;;;;;6.65;5.28;;;;;;;22.73;55.94;100611.33;1798044;79;21062;-50
2021/09/12 02:25:34;;;;;;;7.20;5.30;;;;;;;22.73;55.93;100606.59;1791082;79;21015;-49
2021/09/12 02:28:01;;;;;;;7.42;5.15;;;;;;;22.74;55.92;100606.02;1797167;79;21043;-51
2021/09/12 02:30:28;;;;;;;7.87;5.25;;;;;;;22.74;55.89;100607.41;1792686;79;21164;-48
2021/09/12 02:32:54;;;;;;;6.78;4.70;;;;;;;22.73;55.90;100603.00;1794622;79;20994;-49
2021/09/12 02:35:21;;;;;;;6.65;5.05;;;;;;;22.73;55.89;100601.62;1799975;79;21089;-51
2021/09/12 02:37:47;;;;;;;7.58;5.45;;;;;;;22.73;55.87;100606.59;1795071;79;21007;-49
2021/09/12 02:40:13;;;;;;;6.58;5.78;;;;;;;22.72;55.86;100606.35;1791086;79;21141;-47
2021/09/12 02:42:39;;;;;;;8.15;5.70;;;;;;;22.73;55.85;100610.75;1792249;78;22082;-52
2021/09/12 02:45:08;;;;;;;6.80;5.62;;;;;;;22.73;55.85;100610.75;1788548;79;21113;-49
2021/09/12 02:47:35;;;;;;;6.92;5.37;;;;;;;22.72;55.84;100610.51;1788267;79;21083;-49
2021/09/12 02:50:03;;;;;;;6.45;4.90;;;;;;;22.73;55.84;100604.39;1785214;79;21066;-49
2021/09/12 02:52:29;;;;;;;8.80;5.17;;;;;;;22.72;55.83;100609.70;1790037;79;21046;-48
2021/09/12 02:54:55;;;;;;;6.45;4.90;;;;;;;22.72;55.82;100611.08;1786291;79;21150;-52
2021/09/12 02:57:21;;;;;;;6.53;5.35;;;;;;;22.71;55.82;100613.03;1786038;79;20955;-51
2021/09/12 02:59:47;;;;;;;6.90;5.15;;;;;;;22.71;55.80;100612.22;1784269;79;20998;-50
2021/09/12 03:02:13;;;;;;;6.90;4.80;;;;;;;22.71;55.80;100617.77;1788757;79;21078;-49
2021/09/12 03:04:39;;;;;;;7.78;5.05;;;;;;;22.70;55.78;100619.72;1788413;79;20935;-49
2021/09/12 03:07:05;;;;;;;7.03;5.30;;;;;;;22.71;55.77;100619.16;1800706;79;21638;-52
2021/09/12 03:09:31;;;;;;;9.63;5.28;;;;;;;22.70;55.77;100621.11;1785326;79;20987;-49
2021/09/12 03:11:57;;;;;;;8.58;5.40;;;;;;;22.70;55.76;100620.33;1789038;79;20999;-49
2021/09/12 03:14:23;;;;;;;7.22;5.42;;;;;;;22.68;55.75;100622.00;1790934;79;21543;-51
2021/09/12 03:16:50;;;;;;;8.48;4.92;;;;;;;22.70;55.75;100629.44;1768226;79;21093;-49
2021/09/12 03:19:16;;;;;;;5.85;4.85;;;;;;;22.70;55.72;100629.44;1775860;79;21102;-48
2021/09/12 03:21:43;;;;;;;8.05;5.30;;;;;;;22.68;55.73;100633.67;1795299;78;21004;-48
2021/09/12 03:24:09;;;;;;;6.97;5.53;;;;;;;22.68;55.70;100631.72;1799245;78;21085;-51
2021/09/12 03:26:36;;;;;;;6.22;4.85;;;;;;;22.67;55.70;100635.62;1793316;79;20991;-48
2021/09/12 03:29:02;;;;;;;6.37;4.95;;;;;;;22.67;55.70;100637.58;1789546;79;20951;-51
2021/09/12 03:31:29;;;;;;;7.17;5.55;;;;;;;22.66;55.71;100633.21;1785958;79;21189;-49
2021/09/12 03:33:55;;;;;;;7.90;5.12;;;;;;;22.66;55.70;100636.77;1779333;79;21063;-49
2021/09/12 03:36:21;;;;;;;6.97;5.30;;;;;;;22.66;55.67;100636.77;1795074;78;21054;-50
2021/09/12 03:38:47;;;;;;;7.80;4.92;;;;;;;22.66;55.66;100641.53;1794548;78;21055;-49
2021/09/12 03:41:14;;;;;;;7.40;5.05;;;;;;;22.66;55.66;100637.37;1802450;78;21635;-48
2021/09/12 03:43:40;;;;;;;7.78;5.35;;;;;;;22.66;55.66;100642.31;1787990;79;21989;-49
2021/09/12 03:46:07;;;;;;;5.92;4.97;;;;;;;22.65;55.66;100638.52;1787571;79;21031;-48
2021/09/12 03:48:33;;;;;;;6.97;4.97;;;;;;;22.65;55.64;100638.52;1744446;80;21007;-48
2021/09/12 03:50:59;;;;;;;6.65;4.87;;;;;;;22.65;55.61;100637.13;1794414;79;20893;-47
2021/09/12 03:53:25;;;;;;;6.50;4.67;;;;;;;22.64;55.63;100638.27;1796295;78;20971;-50
2021/09/12 03:55:51;;;;;;;6.75;5.10;;;;;;;22.65;55.61;100639.33;1795450;79;21434;-47
2021/09/12 03:58:17;;;;;;;8.10;5.10;;;;;;;22.63;55.60;100640.22;1788026;79;21543;-49
2021/09/12 04:00:43;;;;;;;8.90;5.60;;;;;;;22.64;55.61;100652.12;1792943;79;21095;-50
2021/09/12 04:03:09;;;;;;;7.08;5.03;;;;;;;22.63;55.60;100648.55;1786778;79;21021;-49
2021/09/12 04:05:35;;;;;;;8.75;4.95;;;;;;;22.63;55.61;100645.77;1793863;79;21005;-47
2021/09/12 04:08:01;;;;;;;9.78;5.70;;;;;;;22.63;55.61;100641.61;1795203;79;22103;-50
2021/09/12 04:10:27;;;;;;;7.75;4.80;;;;;;;22.64;55.60;100654.91;1795859;78;21018;-47
2021/09/12 04:12:53;;;;;;;8.00;4.80;;;;;;;22.63;55.60;100648.55;1784944;79;21494;-52
2021/09/12 04:15:20;;;;;;;6.50;5.22;;;;;;;22.62;55.60;100645.52;1792354;78;21038;-49
2021/09/12 04:17:46;;;;;;;7.92;5.78;;;;;;;22.62;55.59;100644.14;1792666;79;21002;-48
2021/09/12 04:20:13;;;;;;;6.60;4.70;;;;;;;22.62;55.56;100645.52;1790744;79;21096;-50
2021/09/12 04:22:39;;;;;;;7.03;4.72;;;;;;;22.62;55.57;100646.91;1790986;78;20997;-48
2021/09/12 04:25:07;;;;;;;6.78;5.00;;;;;;;22.61;55.58;100647.27;1787740;79;20934;-50
2021/09/12 04:27:33;;;;;;;6.28;4.40;;;;;;;22.62;55.56;100654.41;1792656;78;21142;-49
2021/09/12 04:29:59;;;;;;;7.40;4.70;;;;;;;22.61;55.57;100648.08;1792976;78;21505;-48
2021/09/12 04:32:25;;;;;;;6.00;4.83;;;;;;;22.61;55.55;100650.03;1797221;78;21193;-48
2021/09/12 04:34:51;;;;;;;6.40;4.97;;;;;;;22.61;55.54;100655.02;1786055;79;21586;-48
2021/09/12 04:37:17;;;;;;;9.35;4.97;;;;;;;22.60;55.52;100652.56;1790326;79;21120;-48
2021/09/12 04:39:43;;;;;;;6.65;4.97;;;;;;;22.61;55.53;100656.97;1794672;79;21034;-48
2021/09/12 04:42:09;;;;;;;7.03;4.85;;;;;;;22.61;55.51;100654.20;1797030;79;21543;-48
2021/09/12 04:44:35;;;;;;;6.20;4.97;;;;;;;22.59;55.52;100654.52;1794616;79;21500;-48
2021/09/12 04:47:02;;;;;;;5.58;4.50;;;;;;;22.59;55.50;100652.31;1794715;79;20842;-49
2021/09/12 04:49:28;;;;;;;6.85;4.85;;;;;;;22.59;55.49;100665.61;1792722;79;21047;-48
2021/09/12 04:51:54;;;;;;;6.40;4.70;;;;;;;22.59;55.51;100662.84;1787687;79;21014;-48
2021/09/12 04:54:21;;;;;;;5.72;4.80;;;;;;;22.58;55.48;100668.13;1791648;79;21027;-49
2021/09/12 04:56:47;;;;;;;6.58;4.47;;;;;;;22.60;55.48;100665.04;1793568;79;21191;-48
2021/09/12 04:59:13;;;;;;;6.87;4.42;;;;;;;22.59;55.45;100664.80;1795484;78;20977;-50
2021/09/12 05:01:39;;;;;;;6.83;4.80;;;;;;;22.59;55.46;100666.18;1801478;79;20895;-51
2021/09/12 05:04:05;;;;;;;5.80;4.47;;;;;;;22.58;55.46;100663.98;1792095;79;21056;-49
2021/09/12 05:06:31;;;;;;;6.15;4.95;;;;;;;22.60;55.45;100666.42;1790077;78;21023;-48
2021/09/12 05:08:58;;;;;;;7.08;5.03;;;;;;;22.59;55.44;100662.84;1796015;79;22068;-55
2021/09/12 05:11:24;;;;;;;6.58;5.00;;;;;;;22.58;55.43;100662.59;1795063;79;21136;-49
2021/09/12 05:13:50;;;;;;;6.50;4.95;;;;;;;22.59;55.42;100662.02;1792070;79;21486;-49
2021/09/12 05:16:16;;;;;;;6.22;4.22;;;;;;;22.60;55.42;100665.04;1796252;79;21036;-50
2021/09/12 05:18:42;;;;;;;7.92;5.40;;;;;;;22.59;55.42;100668.38;1794414;79;20970;-50
2021/09/12 05:21:09;;;;;;;5.75;4.45;;;;;;;22.59;55.38;100667.56;1781435;79;20988;-52
2021/09/12 05:23:35;;;;;;;6.25;4.67;;;;;;;22.59;55.38;100669.77;1788640;78;20996;-47
2021/09/12 05:26:01;;;;;;;5.95;4.42;;;;;;;22.59;55.39;100663.41;1792953;78;20994;-50
2021/09/12 05:28:27;;;;;;;7.08;4.25;;;;;;;22.59;55.37;100661.45;1793270;79;21021;-49
2021/09/12 05:30:53;;;;;;;7.00;4.58;;;;;;;22.59;55.37;100660.06;1788558;79;21701;-49
2021/09/12 05:33:19;;;;;;;5.53;4.42;;;;;;;22.60;55.36;100664.47;1785531;79;22240;-51
2021/09/12 05:35:46;;;;;;;5.58;4.62;;;;;;;22.59;55.36;100662.84;1789477;79;37542;-48
2021/09/12 05:38:12;;;;;;;5.90;4.60;;;;;;;22.59;55.35;100660.63;1788163;79;21058;-50
2021/09/12 05:40:38;;;;;;;6.37;4.20;;;;;;;22.58;55.36;100661.20;1787972;79;20879;-49
2021/09/12 05:43:04;;;;;;;7.15;4.85;;;;;;;22.59;55.34;100662.02;1796381;79;20983;-51
2021/09/12 05:45:31;;;;;;;6.67;4.80;;;;;;;22.59;55.34;100662.02;1798698;78;21074;-50
2021/09/12 05:47:57;;;;;;;6.55;4.80;;;;;;;22.59;55.32;100662.02;1790362;79;21086;-48
2021/09/12 05:50:23;;;;;;;5.65;4.42;;;;;;;22.58;55.32;100662.59;1788825;79;20989;-49
2021/09/12 05:52:49;;;;;;;8.93;4.78;;;;;;;22.59;55.31;100668.38;1792001;79;21058;-51
2021/09/12 05:55:16;;;;;;;6.22;4.67;;;;;;;22.59;55.31;100662.02;1793374;79;21080;-51
2021/09/12 05:57:42;;;;;;;6.40;4.67;;;;;;;22.58;55.31;100659.81;1795289;78;21214;-48
2021/09/12 06:00:09;;;;;;;6.03;4.05;;;;;;;22.58;55.31;100659.81;1791519;79;20931;-48
2021/09/12 06:02:36;;;;;;;5.08;3.95;;;;;;;22.59;55.30;100660.63;1791762;79;21002;-48
2021/09/12 06:05:04;;;;;;;7.53;4.80;;;;;;;22.58;55.30;100659.81;1790404;79;21915;-49
2021/09/12 06:07:31;;;;;;;5.75;4.72;;;;;;;22.58;55.29;100665.36;1790268;79;21587;-47
2021/09/12 06:09:57;;;;;;;6.42;4.20;;;;;;;22.58;55.29;100668.70;1793083;79;21316;-48
2021/09/12 06:12:23;;;;;;;6.42;4.83;;;;;;;22.59;55.30;100665.61;1789464;79;21000;-47
2021/09/12 06:14:49;;;;;;;6.90;4.53;;;;;;;22.59;55.28;100668.95;1792171;79;21452;-49
2021/09/12 06:17:15;;;;;;;6.60;4.70;;;;;;;22.59;55.30;100667.56;1785546;79;21096;-49
2021/09/12 06:19:42;;;;;;;6.60;4.90;;;;;;;22.59;55.27;100670.34;1796341;79;20981;-48
2021/09/12 06:22:08;;;;;;;6.78;4.37;;;;;;;22.58;55.28;100671.48;1795510;79;21125;-48
2021/09/12 06:24:34;;;;;;;6.47;4.67;;;;;;;22.60;55.27;100674.74;1789661;79;21505;-47
2021/09/12 06:27:00;;;;;;;5.62;4.55;;;;;;;22.58;55.26;100678.41;1791428;79;20990;-49
2021/09/12 06:29:26;;;;;;;5.10;4.28;;;;;;;22.58;55.24;100677.02;1774882;79;21078;-51
2021/09/12 06:31:53;;;;;;;6.70;4.33;;;;;;;22.58;55.25;100677.02;1774185;79;21534;-47
2021/09/12 06:34:19;;;;;;;6.17;4.50;;;;;;;22.58;55.24;100673.69;1788834;78;21302;-49
2021/09/12 06:36:45;;;;;;;4.92;3.87;;;;;;;22.56;55.25;100672.40;1792989;79;21066;-48
2021/09/12 06:39:11;;;;;;;6.05;4.53;;;;;;;22.58;55.24;100676.45;1793616;79;21002;-48
2021/09/12 06:41:38;;;;;;;6.25;4.35;;;;;;;22.58;55.23;100672.86;1785482;79;21050;-48
2021/09/12 06:44:05;;;;;;;5.55;4.45;;;;;;;22.58;55.24;100676.45;1791191;78;21452;-48
2021/09/12 06:46:31;;;;;;;5.62;4.22;;;;;;;22.58;55.22;100670.91;1796836;79;21275;-49
2021/09/12 06:48:57;;;;;;;5.83;4.12;;;;;;;22.59;55.21;100682.25;1789271;79;21485;-48
2021/09/12 06:51:23;;;;;;;5.55;4.47;;;;;;;22.59;55.21;100680.05;1791358;79;21010;-47
2021/09/12 06:53:50;;;;;;;6.50;4.45;;;;;;;22.58;55.22;100680.61;1792355;79;21116;-48
2021/09/12 06:56:16;;;;;;;6.53;4.70;;;;;;;22.58;55.21;100684.77;1794989;78;21064;-48
2021/09/12 06:58:43;;;;;;;5.80;4.45;;;;;;;22.60;55.20;100684.45;1790766;79;21430;-49
2021/09/12 07:01:09;;;;;;;5.80;4.53;;;;;;;22.58;55.18;100683.39;1797823;78;21004;-50
2021/09/12 07:03:35;;;;;;;6.37;4.65;;;;;;;22.58;55.18;100687.55;1800908;78;21215;-50
2021/09/12 07:06:01;;;;;;;5.78;4.33;;;;;;;22.59;55.17;100683.63;1797364;78;21027;-50
2021/09/12 07:08:27;;;;;;;5.55;4.60;;;;;;;22.59;55.17;100687.80;1795987;78;21412;-51
2021/09/12 07:10:53;;;;;;;5.47;4.00;;;;;;;22.59;55.16;100687.80;1792470;79;23250;-49
2021/09/12 07:13:19;;;;;;;6.10;4.55;;;;;;;22.60;55.16;100688.61;1795626;78;21019;-47
2021/09/12 07:15:45;;;;;;;5.97;4.47;;;;;;;22.59;55.15;100687.80;1784958;78;21385;-48
2021/09/12 07:18:11;;;;;;;5.75;3.95;;;;;;;22.61;55.14;100686.08;1788049;78;21984;-48
2021/09/12 07:20:37;;;;;;;5.45;3.87;;;;;;;22.60;55.15;100681.67;1800116;78;20986;-48
2021/09/12 07:23:03;;;;;;;5.58;4.47;;;;;;;22.59;55.12;100678.09;1792102;79;21624;-49
2021/09/12 07:25:30;;;;;;;6.15;4.53;;;;;;;22.61;55.13;100682.74;1795537;79;21617;-48
2021/09/12 07:27:57;;;;;;;5.55;4.25;;;;;;;22.61;55.12;100677.20;1794740;79;21007;-48
2021/09/12 07:30:23;;;;;;;5.90;4.70;;;;;;;22.61;55.11;100674.42;1785599;79;22555;-48
2021/09/12 07:32:49;;;;;;;7.75;4.87;;;;;;;22.61;55.12;100677.20;1793315;79;21018;-49
2021/09/12 07:35:15;;;;;;;5.30;4.30;;;;;;;22.62;55.08;100671.86;1797227;79;21054;-49
2021/09/12 07:37:41;;;;;;;5.95;4.67;;;;;;;22.62;55.08;100669.09;1796084;79;20996;-50
2021/09/12 07:40:08;;;;;;;5.40;4.25;;;;;;;22.63;55.08;100682.39;1794930;79;21137;-48
2021/09/12 07:42:35;;;;;;;4.67;3.83;;;;;;;22.62;55.07;100676.02;1778160;79;21063;-47
2021/09/12 07:45:01;;;;;;;6.58;4.20;;;;;;;22.62;55.06;100674.64;1774209;79;21339;-48
2021/09/12 07:47:27;;;;;;;5.62;4.37;;;;;;;22.62;55.06;100670.48;1779554;79;21033;-48
2021/09/12 07:49:53;;;;;;;6.00;4.15;;;;;;;22.64;55.06;100670.16;1779200;78;21102;-48
2021/09/12 07:52:19;;;;;;;6.12;4.25;;;;;;;22.63;55.05;100668.52;1773464;78;21047;-48
2021/09/12 07:54:45;;;;;;;7.70;4.90;;;;;;;22.63;55.04;100662.97;1769904;79;21008;-47
2021/09/12 07:57:11;;;;;;;4.47;3.85;;;;;;;22.63;55.04;100665.18;1765748;79;20868;-49
2021/09/12 07:59:37;;;;;;;5.72;4.20;;;;;;;22.63;55.01;100663.80;1770873;79;21061;-48
2021/09/12 08:02:04;;;;;;;5.42;4.25;;;;;;;22.64;55.00;100667.37;1771033;79;21677;-47
2021/09/12 08:04:33;;;;;;;4.58;4.00;;;;;;;22.63;55.01;100669.34;1766192;79;21031;-48
2021/09/12 08:06:58;;;;;;;5.78;4.45;;;;;;;22.65;54.99;100670.40;1770156;79;21059;-48
2021/09/12 08:09:24;;;;;;;5.40;4.00;;;;;;;22.63;55.01;100663.80;1770752;79;21009;-48
2021/09/12 08:11:50;;;;;;;5.95;4.20;;;;;;;22.64;54.99;100670.97;1773632;79;21532;-47
2021/09/12 08:14:16;;;;;;;5.92;4.00;;;;;;;22.64;54.99;100662.66;1768197;79;20952;-50
2021/09/12 08:16:42;;;;;;;6.85;4.40;;;;;;;22.65;54.99;100664.85;1771740;79;21028;-48
2021/09/12 08:19:08;;;;;;;5.45;4.10;;;;;;;22.65;54.96;100663.47;1772564;79;20874;-48
2021/09/12 08:21:35;;;;;;;5.65;4.20;;;;;;;22.64;54.96;100664.04;1770162;79;20962;-48
2021/09/12 08:24:01;;;;;;;4.95;4.12;;;;;;;22.65;54.96;100662.90;1778127;79;21473;-48
2021/09/12 08:26:27;;;;;;;5.95;4.47;;;;;;;22.65;54.96;100662.90;1792996;79;21535;-49
2021/09/12 08:28:56;;;;;;;6.08;4.45;;;;;;;22.65;54.95;100658.73;1790685;78;21015;-48
2021/09/12 08:31:22;;;;;;;5.85;4.22;;;;;;;22.65;54.92;100656.53;1795438;79;21042;-49
2021/09/12 08:33:48;;;;;;;4.67;3.90;;;;;;;22.66;54.91;100654.01;1792829;79;21423;-47
2021/09/12 08:36:14;;;;;;;6.05;4.08;;;;;;;22.65;54.92;100652.38;1790388;79;21780;-46
2021/09/12 08:38:41;;;;;;;4.70;3.92;;;;;;;22.65;54.92;100644.88;1792311;78;21062;-48
2021/09/12 08:41:08;;;;;;;5.35;4.42;;;;;;;22.66;54.91;100644.30;1794173;79;21401;-51
2021/09/12 08:43:35;;;;;;;5.15;3.92;;;;;;;22.66;54.90;100644.30;1797244;79;21099;-49
2021/09/12 08:46:02;;;;;;;4.55;3.83;;;;;;;22.66;54.90;100645.09;1795071;78;20999;-47
2021/09/12 08:48:28;;;;;;;6.83;3.52;;;;;;;22.67;54.89;100640.36;1789776;79;21015;-46
2021/09/12 08:50:55;;;;;;;4.60;3.83;;;;;;;22.67;54.88;100639.79;1793655;79;20987;-50
2021/09/12 08:53:21;;;;;;;4.92;3.62;;;;;;;22.66;54.88;100627.06;1791456;79;20999;-47
2021/09/12 08:55:47;;;;;;;5.53;3.92;;;;;;;22.68;54.88;100630.90;1789010;79;21903;-48
2021/09/12 08:58:13;;;;;;;5.58;4.05;;;;;;;22.69;54.87;100637.54;1788892;79;21165;-47
2021/09/12 09:00:44;;;;;;;5.55;4.00;;;;;;;22.69;54.87;100627.02;1788745;79;21581;-46
2021/09/12 09:03:10;;;;;;;6.00;4.05;;;;;;;22.68;54.84;100626.73;1790859;79;21138;-50
2021/09/12 09:05:40;;;;;;;5.03;3.85;;;;;;;22.68;54.83;100623.39;1786580;79;21038;-47
2021/09/12 09:08:18;;;;;;;6.43;4.20;;;;;;;22.69;54.81;100622.28;1798055;78;21150;-47
2021/09/12 09:10:49;;;;;;;4.37;3.60;;;;;;;22.68;54.83;100619.23;1792221;79;20991;-46
2021/09/12 09:13:34;;;;;;;4.55;3.85;;;;;;;22.69;54.82;100616.73;1794106;79;21064;-48
2021/09/12 09:16:02;;;;;;;5.00;3.45;;;;;;;22.70;54.81;100612.80;1789696;79;20991;-47
2021/09/12 09:18:37;;;;;;;5.03;4.22;;;;;;;22.69;54.84;100607.60;1791586;79;21151;-47
2021/09/12 09:21:39;;;;;;;4.97;3.87;;;;;;;22.69;54.83;100615.92;1795380;79;21060;-47
2021/09/12 09:24:24;;;;;;;5.10;3.95;;;;;;;22.71;54.84;100609.45;1793463;78;21690;-47
2021/09/12 09:27:06;;;;;;;6.53;4.00;;;;;;;22.70;54.83;100616.17;1796844;78;21189;-48
2021/09/12 09:29:35;;;;;;;5.17;3.98;;;;;;;22.68;54.82;100603.98;1796673;79;20951;-50
2021/09/12 09:32:07;;;;;;;5.42;3.98;;;;;;;22.69;54.82;100611.77;1794554;79;21113;-49
2021/09/12 09:34:34;;;;;;;6.45;3.98;;;;;;;22.69;54.86;100611.77;1799632;79;21454;-48
2021/09/12 09:37:18;;;;;;;5.15;4.10;;;;;;;22.70;54.85;100605.86;1799489;79;21074;-49
2021/09/12 09:39:54;;;;;;;6.08;4.33;;;;;;;22.70;54.85;100611.41;1796155;79;21074;-48
2021/09/12 09:42:36;;;;;;;5.42;3.90;;;;;;;22.71;54.87;100608.88;1794965;79;21532;-48
2021/09/12 09:45:18;;;;;;;5.95;4.00;;;;;;;22.71;54.86;100599.17;1791462;79;21054;-47
2021/09/12 09:47:49;;;;;;;5.40;3.72;;;;;;;22.72;54.85;100596.64;1790805;79;21370;-47
2021/09/12 09:50:21;;;;;;;4.40;3.65;;;;;;;22.71;54.86;100590.85;1790052;78;21121;-49
2021/09/12 09:52:51;;;;;;;5.28;3.37;;;;;;;22.73;54.86;100596.89;1797825;78;21307;-52
2021/09/12 09:55:19;;;;;;;;;;;;;;;22.73;54.85;100593.30;1800273;79;21003;-49
2021/09/12 09:57:47;;;;;;;5.45;3.80;;;;;;;22.73;54.87;100598.27;1794892;78;20475;-48
2021/09/12 10:00:15;;;;;;;5.83;4.17;;;;;;;22.73;54.87;100596.89;1798413;79;21006;-49
2021/09/12 10:02:41;;;;;;;4.78;3.67;;;;;;;22.74;54.86;100594.93;1803509;79;20963;-48
2021/09/12 10:05:10;;;;;;;4.33;3.85;;;;;;;22.74;54.85;100591.55;1797912;79;21049;-49
2021/09/12 10:07:38;;;;;;;5.28;4.15;;;;;;;22.76;54.84;100586.50;1774246;79;21004;-50
2021/09/12 10:10:08;;;;;;;4.95;3.85;;;;;;;22.77;54.84;100583.16;1770653;79;21020;-48
2021/09/12 10:12:38;;;;;;;5.70;3.77;;;;;;;22.78;54.81;100587.55;1771141;79;20995;-52
2021/09/12 10:15:11;;;;;;;6.10;4.00;;;;;;;22.79;54.81;100578.06;1769681;79;21131;-51
2021/09/12 10:17:37;;;;;;;5.62;4.20;;;;;;;22.80;54.79;100583.04;1739684;79;21015;-48
2021/09/12 10:20:15;;;;;;;5.47;4.55;;;;;;;22.82;54.76;100582.95;1737880;79;21002;-50
2021/09/12 10:22:58;;;;;;;6.83;4.35;;;;;;;22.84;54.73;100577.05;1765601;79;21079;-50
2021/09/12 10:25:29;;;;;;;5.42;4.03;;;;;;;22.85;54.71;100574.52;1753547;79;21048;-46
2021/09/12 10:28:06;;;;;;;5.55;4.25;;;;;;;22.85;54.70;100572.56;1769308;79;21079;-50
2021/09/12 10:30:38;;;;;;;6.45;4.30;;;;;;;22.87;54.67;100572.23;1777431;79;22386;-48
2021/09/12 10:33:16;;;;;;;4.37;3.98;;;;;;;22.88;54.63;100573.84;1766606;79;21420;-50
2021/09/12 10:35:55;;;;;;;5.05;4.12;;;;;;;22.89;54.61;100567.96;1791906;79;21015;-46
2021/09/12 10:38:30;;;;;;;5.17;3.77;;;;;;;22.90;54.57;100569.59;1791757;79;21426;-47
2021/09/12 10:41:08;;;;;;;5.12;3.83;;;;;;;22.93;54.56;100578.61;1794461;79;21062;-50
2021/09/12 10:43:41;;;;;;;5.87;3.80;;;;;;;22.94;54.52;100563.60;1789360;79;21152;-47
2021/09/12 10:46:16;;;;;;;5.00;3.92;;;;;;;22.96;54.49;100565.44;1794386;78;21362;-48
2021/09/12 10:48:48;;;;;;;5.45;4.12;;;;;;;22.98;54.45;100562.34;1790315;79;21058;-49
2021/09/12 10:51:22;;;;;;;5.37;3.95;;;;;;;23.00;54.42;100563.61;1782131;79;21085;-47
2021/09/12 10:54:01;;;;;;;5.12;4.03;;;;;;;23.01;54.38;100559.70;1783914;79;21082;-48
2021/09/12 10:56:29;;;;;;;6.50;3.90;;;;;;;23.03;54.34;100558.80;1783796;79;21156;-50
2021/09/12 10:59:09;;;;;;;4.87;3.77;;;;;;;23.05;54.29;100555.66;1783281;79;21004;-50
2021/09/12 11:01:48;;;;;;;5.45;3.47;;;;;;;23.06;54.25;100549.78;1758289;80;21479;-48
2021/09/12 11:04:16;;;;;;;5.67;3.92;;;;;;;23.08;54.19;100555.00;1790170;79;21042;-49
2021/09/12 11:06:47;;;;;;;4.67;3.58;;;;;;;23.10;54.13;100561.83;1782650;79;21041;-52
2021/09/12 11:09:19;;;;;;;;;;;;;;;23.12;54.09;100549.00;1778324;80;21765;-48
2021/09/12 11:11:45;;;;;;;5.28;4.25;;;;;;;23.14;54.03;100543.91;1770186;79;20227;-48
2021/09/12 11:14:17;;;;;;;5.65;4.15;;;;;;;23.14;54.00;100543.91;1785120;79;20998;-47
2021/09/12 11:16:43;;;;;;;4.58;3.77;;;;;;;23.16;53.98;100545.21;1781651;79;21025;-49
2021/09/12 11:19:09;;;;;;;4.83;4.17;;;;;;;23.17;53.94;100538.48;1790180;78;21020;-50
2021/09/12 11:21:45;;;;;;;5.08;3.87;;;;;;;23.19;53.87;100533.42;1788798;78;21107;-51
2021/09/12 11:24:19;;;;;;;5.60;4.33;;;;;;;23.20;53.86;100532.27;1793392;78;20985;-51
2021/09/12 11:27:05;;;;;;;5.03;3.95;;;;;;;23.22;53.82;100529.13;1782265;78;21017;-48
2021/09/12 11:29:39;;;;;;;5.35;4.25;;;;;;;23.23;53.81;100531.58;1791151;78;21052;-48